Pagina principală
METAR-TAF:

METAR-TAF

Aeroporturi :

Kwajalein, Insulele Marshall

Latitudine: 08-43N, longitudine: 167-44E, elevație: 3 m

Observații meteo curente

Raportul a fost făcut în urmă cu 14 de minute, la 03:00 UTC
Vânt calm
Temperatură 28°C
Umiditate 79%
Presiune 1009 hPa
Vizibilitate: 16.1 km
Cer senin

METAR: PKWA 020300Z AUTO 00000KT 10SM CLR 28/24 A2980 RMK AO2 T02800241

Ora: 15:14 (03:14 UTC)

Prognoză

Raportul a fost făcut în urmă cu 3 ore și 47 de minute, la 23:27 UTC
Prognoză valabilă de la 02 ora 00 UTC la 02 ora 24 UTC
Vânt 11 kt de la Est
Vizibilitate: 10 km
Nori împrăștiați la o înălțime de 2000 picior
Nori împrăștiați la o înălțime de 4000 picior
Nori fragmentați la o înălțime de 10000 picior
averse în apropiere

TAF: PKWA 012327Z 0200/0224 10011KT P6SM VCSH SCT020 SCT040 BKN100

Observații și prognoze meteo pentru peste 4.000 de aeroporturi (rapoarte METAR și TAF).

Stațiile disponibile sunt reprezentate pe hartă prin puncte galbene și roșii.

Țineți indicatorul mouse-ului pe punctul dorit pentru a vedea denumirea stației.

Apoi, faceți clic pentru a vedea observațiile și prognozele meteorologice.

Pentru a schimba harta: Pentru mărire, faceți clic pe butoanele verzi cu cruce neagră; pentru micșorare, pe butonul verde cu o liniuță; pentru hărți învecinate, pe săgețile verzi.


METAR-TAF: